createdAt,value
2022-08-20T00:00:14.965Z,76.91
2022-08-20T00:02:48.369Z,76.84
2022-08-20T00:05:21.387Z,77.29
2022-08-20T00:07:50.283Z,77.14
2022-08-20T00:10:19.279Z,77.13
2022-08-20T00:12:49.700Z,77.31
2022-08-20T00:15:22.286Z,77.34
2022-08-20T00:17:54.703Z,77.37
2022-08-20T00:20:26.898Z,77.16
2022-08-20T00:22:55.749Z,77.27
2022-08-20T00:25:24.632Z,77.38
2022-08-20T00:27:53.786Z,77.00
2022-08-20T00:30:23.580Z,76.78
2022-08-20T00:32:56.115Z,76.83
2022-08-20T00:35:27.622Z,77.03
2022-08-20T00:38:00.558Z,76.54
2022-08-20T00:40:34.851Z,76.66
2022-08-20T00:43:06.836Z,76.30
2022-08-20T00:45:37.114Z,76.39
2022-08-20T00:48:06.809Z,76.42
2022-08-20T00:50:39.430Z,76.36
2022-08-20T00:53:08.910Z,76.18
2022-08-20T00:55:38.435Z,76.07
2022-08-20T00:58:09.797Z,75.84
2022-08-20T01:00:43.190Z,75.64
2022-08-20T01:03:16.577Z,75.79
2022-08-20T01:05:48.859Z,75.20
2022-08-20T01:08:19.570Z,75.42
2022-08-20T01:10:50.692Z,75.11
2022-08-20T01:13:23.625Z,75.10
2022-08-20T01:15:56.383Z,75.16
2022-08-20T01:18:28.878Z,75.31
2022-08-20T01:21:00.418Z,75.10
2022-08-20T01:23:36.547Z,75.13
2022-08-20T01:26:10.031Z,74.97
2022-08-20T01:28:41.490Z,75.04
2022-08-20T01:31:12.523Z,75.42
2022-08-20T01:33:42.442Z,75.38
2022-08-20T01:36:13.291Z,74.91
2022-08-20T01:38:53.977Z,75.09
2022-08-20T01:41:36.335Z,74.99
2022-08-20T01:44:05.943Z,75.23
2022-08-20T01:46:43.927Z,74.73
2022-08-20T01:49:22.869Z,74.51
2022-08-20T01:51:54.623Z,74.84
2022-08-20T01:54:24.559Z,74.63
2022-08-20T01:57:03.718Z,74.49
2022-08-20T01:59:32.114Z,74.60
2022-08-20T02:02:02.951Z,74.73
2022-08-20T02:04:31.865Z,74.64
2022-08-20T02:07:04.227Z,74.49
2022-08-20T02:09:37.895Z,74.67
2022-08-20T02:12:09.971Z,74.49
2022-08-20T02:14:42.693Z,74.79
2022-08-20T02:17:12.756Z,74.69
2022-08-20T02:19:45.514Z,74.66
2022-08-20T02:22:21.773Z,74.88
2022-08-20T02:24:51.873Z,74.54
2022-08-20T02:27:24.264Z,74.77
2022-08-20T02:29:54.372Z,75.03
2022-08-20T02:32:34.026Z,75.17
2022-08-20T02:35:03.798Z,75.02
2022-08-20T02:37:33.291Z,74.68
2022-08-20T02:40:01.858Z,75.21
2022-08-20T02:42:32.172Z,74.86
2022-08-20T02:45:00.626Z,74.84
2022-08-20T02:47:29.770Z,74.88
2022-08-20T02:49:59.503Z,74.85
2022-08-20T02:52:29.300Z,74.99
2022-08-20T02:54:57.592Z,74.86
2022-08-20T02:57:26.312Z,74.75
2022-08-20T02:59:56.971Z,75.05
2022-08-20T03:02:25.439Z,75.23
2022-08-20T03:04:54.207Z,74.77
2022-08-20T03:07:22.656Z,75.20
2022-08-20T03:09:51.687Z,75.36
2022-08-20T03:12:20.603Z,75.28
2022-08-20T03:14:48.894Z,75.14
2022-08-20T03:17:19.298Z,75.03
2022-08-20T03:19:47.615Z,75.00
2022-08-20T03:22:16.708Z,75.08
2022-08-20T03:24:45.399Z,75.26
2022-08-20T03:27:14.706Z,75.46
2022-08-20T03:29:43.099Z,75.72
2022-08-20T03:32:11.902Z,75.58
2022-08-20T03:34:41.575Z,75.85
2022-08-20T03:37:12.139Z,75.96
2022-08-20T03:39:41.130Z,75.53
2022-08-20T03:42:10.446Z,75.75
2022-08-20T03:44:38.831Z,75.87
2022-08-20T03:47:09.691Z,75.79
2022-08-20T03:49:38.422Z,76.09
2022-08-20T03:52:08.188Z,75.92
2022-08-20T03:54:37.474Z,75.97
2022-08-20T03:57:12.859Z,76.02
2022-08-20T03:59:41.784Z,75.90
2022-08-20T04:02:11.440Z,75.63
2022-08-20T04:04:41.018Z,75.82
2022-08-20T04:07:16.179Z,76.02
2022-08-20T04:09:45.451Z,76.14
2022-08-20T04:12:14.315Z,75.88
2022-08-20T04:14:43.558Z,75.59
2022-08-20T04:17:14.140Z,76.01
2022-08-20T04:19:44.716Z,75.81
2022-08-20T04:22:15.072Z,76.10
2022-08-20T04:24:44.528Z,76.20
2022-08-20T04:27:14.728Z,76.33
2022-08-20T04:29:44.543Z,76.26
2022-08-20T04:32:14.338Z,76.27
2022-08-20T04:34:47.282Z,76.08
2022-08-20T04:37:21.580Z,76.00
2022-08-20T04:40:10.046Z,76.20
2022-08-20T04:42:39.194Z,76.07
2022-08-20T04:45:09.420Z,76.02
2022-08-20T04:47:38.371Z,75.81
2022-08-20T04:50:10.647Z,75.89
2022-08-20T04:52:40.582Z,76.03
2022-08-20T04:55:11.273Z,75.55
2022-08-20T04:57:39.685Z,75.76
2022-08-20T05:00:11.440Z,75.65
2022-08-20T05:02:39.915Z,76.07
2022-08-20T05:05:09.240Z,75.84
2022-08-20T05:07:43.383Z,75.83
2022-08-20T05:10:15.855Z,76.15
2022-08-20T05:12:55.630Z,75.85
2022-08-20T05:15:26.840Z,75.77
2022-08-20T05:17:57.391Z,75.70
2022-08-20T05:20:27.329Z,75.76
2022-08-20T05:22:57.723Z,75.93
2022-08-20T05:25:29.350Z,75.47
2022-08-20T05:28:01.060Z,75.50
2022-08-20T05:30:33.318Z,75.43
2022-08-20T05:33:05.776Z,75.84
2022-08-20T05:35:39.181Z,75.72
2022-08-20T05:38:12.887Z,75.73
2022-08-20T05:40:43.140Z,75.27
2022-08-20T05:43:12.295Z,75.42
2022-08-20T05:45:44.771Z,75.56
2022-08-20T05:48:15.702Z,75.77
2022-08-20T05:50:46.706Z,75.54
2022-08-20T05:53:17.657Z,75.51
2022-08-20T05:55:49.404Z,75.07
2022-08-20T05:58:20.748Z,75.07
2022-08-20T06:00:49.716Z,75.42
2022-08-20T06:03:36.305Z,75.02
2022-08-20T06:06:05.696Z,75.32
2022-08-20T06:08:55.840Z,75.11
2022-08-20T06:11:24.169Z,75.10
2022-08-20T06:13:53.191Z,75.46
2022-08-20T06:16:21.566Z,75.10
2022-08-20T06:18:50.711Z,75.11
2022-08-20T06:21:19.666Z,75.31
2022-08-20T06:23:57.276Z,75.11
2022-08-20T06:26:30.879Z,75.50
2022-08-20T06:29:00.301Z,75.54
2022-08-20T06:31:29.156Z,75.20
2022-08-20T06:33:57.818Z,75.20
2022-08-20T06:36:27.902Z,75.54
2022-08-20T06:38:58.308Z,75.44
2022-08-20T06:41:35.806Z,75.63
2022-08-20T06:44:07.588Z,76.14
2022-08-20T06:46:36.400Z,75.81
2022-08-20T06:49:06.373Z,75.90
2022-08-20T06:51:35.626Z,76.27
2022-08-20T06:54:04.135Z,76.46
2022-08-20T06:56:33.025Z,76.37
2022-08-20T06:59:02.264Z,76.57
2022-08-20T07:01:32.316Z,76.64
2022-08-20T07:04:00.661Z,76.46
2022-08-20T07:06:29.621Z,77.00
2022-08-20T07:08:58.374Z,76.72
2022-08-20T07:11:28.547Z,77.25
2022-08-20T07:13:58.607Z,77.16
2022-08-20T07:16:27.227Z,77.45
2022-08-20T07:18:58.816Z,77.18
2022-08-20T07:21:27.194Z,77.22
2022-08-20T07:23:56.129Z,77.56
2022-08-20T07:26:24.604Z,77.45
2022-08-20T07:28:53.243Z,77.54
2022-08-20T07:31:42.157Z,77.38
2022-08-20T07:34:14.164Z,77.67
2022-08-20T07:36:43.954Z,77.23
2022-08-20T07:39:13.066Z,77.16
2022-08-20T07:41:41.791Z,76.90
2022-08-20T07:44:10.160Z,77.56
2022-08-20T07:46:39.211Z,77.04
2022-08-20T07:49:10.041Z,76.93
2022-08-20T07:51:40.766Z,77.24
2022-08-20T07:54:09.114Z,77.34
2022-08-20T07:56:37.839Z,77.11
2022-08-20T07:59:06.336Z,77.25
2022-08-20T08:01:35.631Z,77.19
2022-08-20T08:04:04.910Z,76.90
2022-08-20T08:06:34.183Z,77.04
2022-08-20T08:09:10.261Z,76.99
2022-08-20T08:11:47.277Z,76.87
2022-08-20T08:14:18.925Z,77.31
2022-08-20T08:16:48.488Z,76.89
2022-08-20T08:19:19.300Z,76.89
2022-08-20T08:21:48.552Z,76.93
2022-08-20T08:24:21.697Z,77.08
2022-08-20T08:26:52.880Z,76.85
2022-08-20T08:29:21.290Z,76.98
2022-08-20T08:31:50.599Z,76.85
2022-08-20T08:34:18.920Z,77.16
2022-08-20T08:36:48.924Z,76.82
2022-08-20T08:39:18.766Z,77.00
2022-08-20T08:41:50.800Z,76.74
2022-08-20T08:44:24.164Z,76.98
2022-08-20T08:46:56.582Z,76.62
2022-08-20T08:49:38.139Z,76.75
2022-08-20T08:52:14.699Z,77.01
2022-08-20T08:54:50.519Z,76.85
2022-08-20T08:57:19.396Z,77.05
2022-08-20T09:00:03.987Z,77.27
2022-08-20T09:02:36.356Z,76.89
2022-08-20T09:05:15.987Z,77.10
2022-08-20T09:07:48.679Z,76.98
2022-08-20T09:10:23.117Z,76.96
2022-08-20T09:12:52.271Z,76.43
2022-08-20T09:15:21.883Z,76.38
2022-08-20T09:17:50.348Z,76.37
2022-08-20T09:20:19.739Z,76.40
2022-08-20T09:22:51.476Z,76.20
2022-08-20T09:25:23.055Z,76.22
2022-08-20T09:27:51.844Z,76.19
2022-08-20T09:30:20.347Z,76.31
2022-08-20T09:32:49.613Z,76.15
2022-08-20T09:35:18.466Z,76.15
2022-08-20T09:37:46.992Z,76.34
2022-08-20T09:40:22.873Z,76.14
2022-08-20T09:42:52.047Z,76.14
2022-08-20T09:45:21.038Z,76.08
2022-08-20T09:47:56.387Z,76.11
2022-08-20T09:50:49.014Z,75.60
2022-08-20T09:53:20.799Z,76.14
2022-08-20T09:55:53.723Z,75.64
2022-08-20T09:58:27.351Z,75.76
2022-08-20T10:00:55.727Z,75.50
2022-08-20T10:03:24.690Z,75.52
2022-08-20T10:05:53.394Z,75.71
2022-08-20T10:08:22.110Z,75.43
2022-08-20T10:10:52.320Z,75.85
2022-08-20T10:13:20.663Z,75.40
2022-08-20T10:15:49.642Z,75.43
2022-08-20T10:18:18.055Z,75.62
2022-08-20T10:20:46.884Z,75.64
2022-08-20T10:23:15.455Z,75.82
2022-08-20T10:25:44.803Z,75.51
2022-08-20T10:28:14.999Z,75.37
2022-08-20T10:30:45.074Z,75.29
2022-08-20T10:33:13.846Z,75.60
2022-08-20T10:35:42.150Z,75.30
2022-08-20T10:38:10.479Z,75.64
2022-08-20T10:40:38.825Z,75.50
2022-08-20T10:43:07.219Z,75.61
2022-08-20T10:45:37.345Z,75.61
2022-08-20T10:48:08.798Z,75.67
2022-08-20T10:50:37.935Z,75.61
2022-08-20T10:53:06.758Z,75.74
2022-08-20T10:55:35.160Z,75.61
2022-08-20T10:58:06.802Z,75.58
2022-08-20T11:00:36.140Z,75.67
2022-08-20T11:03:05.815Z,75.28
2022-08-20T11:05:34.715Z,75.23
2022-08-20T11:08:05.139Z,75.37
2022-08-20T11:10:37.043Z,75.59
2022-08-20T11:13:07.603Z,75.40
2022-08-20T11:15:39.113Z,75.50
2022-08-20T11:18:10.554Z,76.03
2022-08-20T11:20:38.919Z,75.98
2022-08-20T11:23:07.695Z,76.10
2022-08-20T11:25:36.051Z,76.12
2022-08-20T11:28:06.442Z,76.18
2022-08-20T11:30:37.002Z,76.23
2022-08-20T11:33:06.793Z,76.02
2022-08-20T11:35:49.079Z,75.86
2022-08-20T11:38:18.979Z,75.80
2022-08-20T11:40:47.709Z,75.63
2022-08-20T11:43:17.441Z,75.93
2022-08-20T11:45:48.973Z,75.71
2022-08-20T11:48:18.020Z,76.04
2022-08-20T11:50:49.008Z,75.87
2022-08-20T11:53:17.739Z,76.22
2022-08-20T11:55:47.917Z,76.12
2022-08-20T11:58:16.385Z,75.95
2022-08-20T12:00:45.010Z,76.20
2022-08-20T12:03:13.857Z,76.20
2022-08-20T12:05:44.910Z,75.93
2022-08-20T12:08:27.058Z,76.11
2022-08-20T12:10:59.160Z,75.86
2022-08-20T12:13:30.945Z,75.38
2022-08-20T12:16:16.699Z,75.34
2022-08-20T12:18:45.837Z,75.09
2022-08-20T12:21:14.428Z,74.90
2022-08-20T12:23:44.523Z,74.85
2022-08-20T12:26:13.147Z,75.15
2022-08-20T12:28:41.527Z,75.03
2022-08-20T12:31:10.394Z,74.67
2022-08-20T12:33:38.921Z,74.31
2022-08-20T12:36:08.110Z,74.62
2022-08-20T12:38:36.507Z,74.69
2022-08-20T12:41:06.528Z,74.66
2022-08-20T12:43:34.889Z,74.89
2022-08-20T12:46:03.266Z,75.14
2022-08-20T12:48:31.643Z,75.03
2022-08-20T12:51:00.010Z,75.33
2022-08-20T12:53:28.800Z,75.36
2022-08-20T12:55:57.131Z,74.95
2022-08-20T12:58:27.580Z,75.20
2022-08-20T13:00:55.905Z,75.44
2022-08-20T13:03:24.776Z,75.12
2022-08-20T13:05:53.479Z,75.30
2022-08-20T13:08:22.335Z,75.06
2022-08-20T13:10:50.632Z,75.01
2022-08-20T13:13:20.779Z,75.52
2022-08-20T13:15:51.839Z,74.98
2022-08-20T13:18:21.528Z,75.22
2022-08-20T13:20:50.522Z,74.79
2022-08-20T13:23:19.256Z,74.80
2022-08-20T13:25:47.995Z,74.95
2022-08-20T13:28:16.363Z,74.18
2022-08-20T13:30:45.282Z,74.37
2022-08-20T13:33:15.217Z,74.52
2022-08-20T13:35:43.894Z,74.38
2022-08-20T13:38:12.604Z,74.21
2022-08-20T13:40:41.163Z,74.36
2022-08-20T13:43:11.851Z,74.13
2022-08-20T13:45:42.443Z,73.77
2022-08-20T13:48:14.973Z,73.89
2022-08-20T13:50:46.907Z,73.76
2022-08-20T13:53:17.439Z,73.83
2022-08-20T13:55:47.119Z,73.32
2022-08-20T13:58:15.811Z,74.02
2022-08-20T14:00:45.318Z,73.43
2022-08-20T14:03:13.898Z,73.66
2022-08-20T14:05:50.494Z,73.56
2022-08-20T14:08:21.160Z,72.84
2022-08-20T14:10:51.795Z,71.86
2022-08-20T14:13:22.605Z,71.63
2022-08-20T14:15:51.604Z,71.00
2022-08-20T14:18:20.230Z,70.40
2022-08-20T14:20:50.710Z,70.00
2022-08-20T14:23:19.198Z,69.87
2022-08-20T14:25:49.900Z,69.46
2022-08-20T14:28:21.083Z,69.03
2022-08-20T14:30:53.204Z,69.13
2022-08-20T14:33:23.394Z,68.79
2022-08-20T14:35:54.513Z,68.88
2022-08-20T14:38:24.178Z,68.95
2022-08-20T14:40:53.006Z,68.72
2022-08-20T14:43:21.414Z,68.94
2022-08-20T14:45:49.783Z,68.86
2022-08-20T14:48:18.835Z,68.94
2022-08-20T14:50:47.258Z,68.59
2022-08-20T14:53:17.536Z,68.81
2022-08-20T14:55:47.024Z,68.51
2022-08-20T14:58:17.388Z,68.90
2022-08-20T15:00:47.279Z,68.81
2022-08-20T15:03:15.927Z,69.01
2022-08-20T15:05:44.239Z,69.02
2022-08-20T15:08:13.338Z,69.79
2022-08-20T15:10:43.647Z,69.78
2022-08-20T15:16:02.700Z,70.07
2022-08-20T15:18:31.442Z,70.31
2022-08-20T15:20:59.922Z,70.61
2022-08-20T15:23:28.635Z,71.43
2022-08-20T15:25:58.527Z,71.69
2022-08-20T15:28:27.300Z,71.67
2022-08-20T15:30:55.989Z,72.22
2022-08-20T15:33:24.377Z,72.30
2022-08-20T15:35:52.725Z,72.25
2022-08-20T15:38:21.011Z,72.47
2022-08-20T15:40:49.745Z,72.51
2022-08-20T15:43:19.532Z,73.03
2022-08-20T15:45:48.250Z,73.12
2022-08-20T15:48:19.147Z,72.75
2022-08-20T15:51:03.933Z,73.21
2022-08-20T15:53:40.666Z,73.42
2022-08-20T15:56:16.638Z,73.26
2022-08-20T15:58:59.371Z,73.26
2022-08-20T16:01:37.148Z,73.66
2022-08-20T16:04:51.955Z,73.77
2022-08-20T16:07:25.862Z,74.32
2022-08-20T16:10:04.632Z,75.14
2022-08-20T16:12:37.121Z,75.17
2022-08-20T16:15:12.957Z,75.70
2022-08-20T16:17:45.750Z,75.75
2022-08-20T16:20:22.175Z,76.18
2022-08-20T16:22:53.210Z,76.60
2022-08-20T16:25:28.268Z,76.32
2022-08-20T16:28:06.178Z,76.05
2022-08-20T16:30:44.411Z,75.60
2022-08-20T16:33:20.735Z,75.44
2022-08-20T16:35:55.652Z,75.35
2022-08-20T16:38:42.108Z,76.03
2022-08-20T16:41:15.935Z,75.64
2022-08-20T16:43:53.787Z,75.53
2022-08-20T16:46:27.106Z,75.88
2022-08-20T16:48:58.818Z,76.11
2022-08-20T16:51:37.594Z,76.27
2022-08-20T16:54:07.644Z,75.90
2022-08-20T16:56:38.569Z,76.54
2022-08-20T16:59:12.104Z,76.52
2022-08-20T17:02:07.294Z,76.35
2022-08-20T17:04:58.698Z,76.51
2022-08-20T17:07:33.522Z,76.76
2022-08-20T17:10:13.147Z,76.71
2022-08-20T17:12:41.507Z,76.53
2022-08-20T17:15:21.063Z,76.70
2022-08-20T17:17:50.854Z,76.80
2022-08-20T17:20:20.485Z,76.71
2022-08-20T17:22:52.842Z,76.69
2022-08-20T17:25:35.745Z,77.16
2022-08-20T17:28:14.620Z,76.96
2022-08-20T17:30:43.516Z,77.03
2022-08-20T17:33:27.141Z,77.30
2022-08-20T17:35:58.079Z,77.01
2022-08-20T17:38:36.028Z,77.20
2022-08-20T17:41:16.735Z,77.21
2022-08-20T17:43:46.988Z,76.82
2022-08-20T17:46:18.600Z,76.65
2022-08-20T17:48:50.212Z,76.99
2022-08-20T17:51:21.527Z,76.71
2022-08-20T17:53:54.357Z,76.80
2022-08-20T17:56:25.174Z,76.93
2022-08-20T17:58:59.111Z,77.12
2022-08-20T18:01:32.492Z,76.56
2022-08-20T18:04:02.382Z,76.57
2022-08-20T18:06:45.059Z,76.65
2022-08-20T18:09:19.300Z,76.64
2022-08-20T18:11:53.498Z,76.25
2022-08-20T18:14:42.919Z,76.42
2022-08-20T18:17:33.184Z,76.10
2022-08-20T18:20:21.082Z,76.34
2022-08-20T18:22:54.527Z,76.03
2022-08-20T18:25:32.594Z,76.16
2022-08-20T18:28:08.448Z,76.44
2022-08-20T18:30:48.446Z,76.47
2022-08-20T18:33:27.164Z,76.44
2022-08-20T18:36:11.299Z,76.69
2022-08-20T18:38:43.396Z,76.80
2022-08-20T18:41:15.751Z,76.33
2022-08-20T18:43:44.546Z,76.48
2022-08-20T18:46:20.554Z,76.74
2022-08-20T18:48:58.559Z,76.99
2022-08-20T18:51:35.635Z,77.30
2022-08-20T18:54:05.229Z,77.33
2022-08-20T18:56:38.497Z,77.36
2022-08-20T18:59:12.859Z,77.80
2022-08-20T19:01:43.043Z,77.44
2022-08-20T19:04:28.986Z,77.63
2022-08-20T19:07:02.655Z,77.65
2022-08-20T19:09:52.128Z,77.68
2022-08-20T19:12:34.796Z,77.38
2022-08-20T19:15:07.462Z,77.77
2022-08-20T19:20:39.823Z,77.28
2022-08-20T19:23:14.112Z,77.55
2022-08-20T19:25:55.291Z,77.55
2022-08-20T19:28:32.988Z,77.34
2022-08-20T19:31:11.339Z,77.67
2022-08-20T19:33:44.136Z,77.45
2022-08-20T19:36:17.330Z,77.84
2022-08-20T19:38:51.060Z,77.84
2022-08-20T19:41:28.864Z,77.48
2022-08-20T19:44:01.291Z,77.47
2022-08-20T19:46:32.425Z,77.74
2022-08-20T19:49:19.513Z,77.60
2022-08-20T19:51:56.983Z,77.71
2022-08-20T19:54:28.520Z,77.45
2022-08-20T19:56:59.289Z,77.67
2022-08-20T19:59:28.914Z,77.92
2022-08-20T20:02:02.879Z,77.47
2022-08-20T20:04:40.055Z,77.37
2022-08-20T20:07:17.174Z,77.36
2022-08-20T20:09:51.233Z,77.13
2022-08-20T20:12:22.947Z,77.44
2022-08-20T20:14:53.711Z,77.33
2022-08-20T20:17:25.236Z,77.36
2022-08-20T20:19:59.066Z,77.49
2022-08-20T20:22:30.805Z,77.05
2022-08-20T20:25:05.282Z,77.42
2022-08-20T20:27:36.837Z,77.36
2022-08-20T20:30:08.211Z,77.00
2022-08-20T20:32:40.707Z,77.36
2022-08-20T20:35:09.166Z,76.83
2022-08-20T20:37:50.673Z,76.85
2022-08-20T20:40:27.497Z,76.81
2022-08-20T20:43:03.303Z,77.11
2022-08-20T20:45:36.032Z,77.23
2022-08-20T20:48:16.527Z,76.94
2022-08-20T20:50:47.270Z,76.72
2022-08-20T20:53:32.299Z,77.10
2022-08-20T20:56:30.937Z,76.81
2022-08-20T20:59:05.499Z,76.85
2022-08-20T21:01:48.200Z,76.68
2022-08-20T21:04:20.715Z,76.61
2022-08-20T21:06:50.146Z,76.99
2022-08-20T21:09:20.333Z,76.84
2022-08-20T21:11:51.011Z,76.68
2022-08-20T21:14:20.486Z,76.48
2022-08-20T21:16:49.108Z,76.45
2022-08-20T21:19:18.612Z,76.55
2022-08-20T21:21:47.166Z,76.99
2022-08-20T21:24:16.195Z,76.81
2022-08-20T21:26:45.409Z,76.74
2022-08-20T21:29:25.794Z,76.74
2022-08-20T21:31:57.064Z,76.84
2022-08-20T21:34:26.259Z,77.12
2022-08-20T21:36:54.997Z,76.94
2022-08-20T21:39:26.312Z,76.97
2022-08-20T21:41:57.523Z,76.85
2022-08-20T21:44:29.624Z,77.21
2022-08-20T21:46:59.716Z,76.92
2022-08-20T21:49:29.679Z,76.79
2022-08-20T21:51:59.119Z,76.74
2022-08-20T21:54:28.781Z,76.65
2022-08-20T21:57:00.219Z,76.70
2022-08-20T21:59:30.022Z,76.75
2022-08-20T22:01:59.064Z,76.50
2022-08-20T22:04:27.565Z,76.85
2022-08-20T22:06:56.731Z,76.77
2022-08-20T22:09:25.162Z,76.45
2022-08-20T22:11:55.747Z,77.00
2022-08-20T22:14:26.673Z,76.55
2022-08-20T22:16:56.779Z,76.99
2022-08-20T22:19:26.407Z,76.99
2022-08-20T22:21:56.606Z,76.86
2022-08-20T22:24:27.868Z,77.24
2022-08-20T22:26:56.828Z,77.20
2022-08-20T22:29:25.491Z,77.00
2022-08-20T22:31:56.105Z,77.06
2022-08-20T22:34:24.596Z,77.20
2022-08-20T22:36:55.187Z,77.21
2022-08-20T22:39:24.321Z,77.44
2022-08-20T22:41:53.495Z,77.14
2022-08-20T22:44:21.807Z,77.32
2022-08-20T22:46:55.688Z,77.40
2022-08-20T22:49:30.407Z,77.45
2022-08-20T22:51:58.862Z,77.48
2022-08-20T22:54:27.784Z,77.06
2022-08-20T22:56:56.981Z,77.42
2022-08-20T22:59:25.461Z,77.38
2022-08-20T23:01:55.081Z,77.27
2022-08-20T23:04:28.243Z,77.18
2022-08-20T23:06:58.411Z,77.61
2022-08-20T23:09:27.780Z,77.68
2022-08-20T23:11:59.590Z,77.43
2022-08-20T23:14:28.383Z,77.36
2022-08-20T23:17:04.252Z,77.54
2022-08-20T23:19:34.742Z,77.21
2022-08-20T23:22:03.202Z,77.36
2022-08-20T23:24:32.663Z,77.25
2022-08-20T23:27:01.509Z,77.14
2022-08-20T23:29:31.131Z,77.26
2022-08-20T23:31:59.926Z,77.68
2022-08-20T23:34:29.190Z,77.33
2022-08-20T23:37:01.338Z,77.39
2022-08-20T23:39:31.311Z,77.51
2022-08-20T23:42:01.240Z,77.70
2022-08-20T23:44:30.141Z,77.74
2022-08-20T23:47:02.906Z,77.63
2022-08-20T23:49:32.839Z,77.46
2022-08-20T23:52:02.751Z,77.40
2022-08-20T23:54:34.135Z,77.32
2022-08-20T23:57:02.959Z,77.50
2022-08-20T23:59:36.820Z,77.58
